sensor_id;sensor_type;location;lat;lon;timestamp;P1;durP1;ratioP1;P2;durP2;ratioP2
40807;SDS011;26523;52.504;13.498;2022-10-13T00:01:14;5.13;;;2.35;;
40807;SDS011;26523;52.504;13.498;2022-10-13T00:03:41;5.60;;;2.75;;
40807;SDS011;26523;52.504;13.498;2022-10-13T00:06:11;6.47;;;2.47;;
40807;SDS011;26523;52.504;13.498;2022-10-13T00:08:38;6.40;;;2.70;;
40807;SDS011;26523;52.504;13.498;2022-10-13T00:11:09;5.97;;;2.92;;
40807;SDS011;26523;52.504;13.498;2022-10-13T00:13:35;11.45;;;2.65;;
40807;SDS011;26523;52.504;13.498;2022-10-13T00:16:01;7.78;;;3.35;;
40807;SDS011;26523;52.504;13.498;2022-10-13T00:18:27;13.73;;;3.00;;
40807;SDS011;26523;52.504;13.498;2022-10-13T00:20:53;7.38;;;2.55;;
40807;SDS011;26523;52.504;13.498;2022-10-13T00:23:18;10.48;;;2.35;;
40807;SDS011;26523;52.504;13.498;2022-10-13T00:25:45;6.38;;;3.00;;
40807;SDS011;26523;52.504;13.498;2022-10-13T00:28:13;7.13;;;2.78;;
40807;SDS011;26523;52.504;13.498;2022-10-13T00:30:39;6.90;;;3.10;;
40807;SDS011;26523;52.504;13.498;2022-10-13T00:33:05;10.35;;;2.78;;
40807;SDS011;26523;52.504;13.498;2022-10-13T00:35:32;8.75;;;2.22;;
40807;SDS011;26523;52.504;13.498;2022-10-13T00:37:58;11.98;;;3.00;;
40807;SDS011;26523;52.504;13.498;2022-10-13T00:40:23;8.02;;;2.63;;
40807;SDS011;26523;52.504;13.498;2022-10-13T00:42:49;9.77;;;3.55;;
40807;SDS011;26523;52.504;13.498;2022-10-13T00:47:56;9.38;;;3.17;;
40807;SDS011;26523;52.504;13.498;2022-10-13T00:50:31;14.55;;;3.17;;
40807;SDS011;26523;52.504;13.498;2022-10-13T00:53:00;17.05;;;2.78;;
40807;SDS011;26523;52.504;13.498;2022-10-13T00:55:28;10.52;;;3.17;;
40807;SDS011;26523;52.504;13.498;2022-10-13T00:57:58;9.82;;;3.20;;
40807;SDS011;26523;52.504;13.498;2022-10-13T01:00:25;7.13;;;2.95;;
40807;SDS011;26523;52.504;13.498;2022-10-13T01:02:51;8.23;;;2.80;;
40807;SDS011;26523;52.504;13.498;2022-10-13T01:05:17;11.25;;;3.40;;
40807;SDS011;26523;52.504;13.498;2022-10-13T01:07:44;7.90;;;2.90;;
40807;SDS011;26523;52.504;13.498;2022-10-13T01:10:15;6.85;;;3.17;;
40807;SDS011;26523;52.504;13.498;2022-10-13T01:12:56;12.38;;;3.08;;
40807;SDS011;26523;52.504;13.498;2022-10-13T01:18:02;5.85;;;2.95;;
40807;SDS011;26523;52.504;13.498;2022-10-13T01:20:52;10.65;;;3.40;;
40807;SDS011;26523;52.504;13.498;2022-10-13T01:32:38;8.40;;;3.90;;
40807;SDS011;26523;52.504;13.498;2022-10-13T01:35:30;9.27;;;3.05;;
40807;SDS011;26523;52.504;13.498;2022-10-13T01:41:32;11.95;;;3.35;;
40807;SDS011;26523;52.504;13.498;2022-10-13T01:44:13;10.40;;;3.45;;
40807;SDS011;26523;52.504;13.498;2022-10-13T01:46:46;8.05;;;2.90;;
40807;SDS011;26523;52.504;13.498;2022-10-13T01:49:14;13.75;;;3.10;;
40807;SDS011;26523;52.504;13.498;2022-10-13T01:51:43;13.63;;;3.63;;
40807;SDS011;26523;52.504;13.498;2022-10-13T01:54:09;9.10;;;2.75;;
40807;SDS011;26523;52.504;13.498;2022-10-13T01:56:35;13.82;;;3.38;;
40807;SDS011;26523;52.504;13.498;2022-10-13T01:59:02;6.53;;;2.15;;
40807;SDS011;26523;52.504;13.498;2022-10-13T02:04:24;11.32;;;3.20;;
40807;SDS011;26523;52.504;13.498;2022-10-13T02:09:31;10.13;;;3.45;;
40807;SDS011;26523;52.504;13.498;2022-10-13T02:12:08;11.45;;;2.97;;
40807;SDS011;26523;52.504;13.498;2022-10-13T02:14:58;9.10;;;3.28;;
40807;SDS011;26523;52.504;13.498;2022-10-13T02:17:26;13.82;;;3.78;;
40807;SDS011;26523;52.504;13.498;2022-10-13T02:19:53;12.25;;;3.30;;
40807;SDS011;26523;52.504;13.498;2022-10-13T02:22:19;11.63;;;2.92;;
40807;SDS011;26523;52.504;13.498;2022-10-13T02:24:48;7.13;;;3.05;;
40807;SDS011;26523;52.504;13.498;2022-10-13T02:27:14;10.07;;;3.00;;
40807;SDS011;26523;52.504;13.498;2022-10-13T02:29:53;5.80;;;2.65;;
40807;SDS011;26523;52.504;13.498;2022-10-13T02:32:20;8.60;;;2.85;;
40807;SDS011;26523;52.504;13.498;2022-10-13T02:34:46;8.63;;;3.28;;
40807;SDS011;26523;52.504;13.498;2022-10-13T02:37:12;6.95;;;2.92;;
40807;SDS011;26523;52.504;13.498;2022-10-13T02:39:38;10.25;;;3.72;;
40807;SDS011;26523;52.504;13.498;2022-10-13T02:42:04;7.85;;;3.33;;
40807;SDS011;26523;52.504;13.498;2022-10-13T02:44:29;11.20;;;3.58;;
40807;SDS011;26523;52.504;13.498;2022-10-13T02:46:55;13.50;;;3.70;;
40807;SDS011;26523;52.504;13.498;2022-10-13T02:49:21;6.78;;;2.92;;
40807;SDS011;26523;52.504;13.498;2022-10-13T02:51:47;6.93;;;3.38;;
40807;SDS011;26523;52.504;13.498;2022-10-13T02:54:12;7.82;;;3.20;;
40807;SDS011;26523;52.504;13.498;2022-10-13T02:56:38;8.15;;;3.42;;
40807;SDS011;26523;52.504;13.498;2022-10-13T02:59:03;10.13;;;3.95;;
40807;SDS011;26523;52.504;13.498;2022-10-13T03:01:29;8.38;;;3.28;;
40807;SDS011;26523;52.504;13.498;2022-10-13T03:03:55;11.75;;;3.33;;
40807;SDS011;26523;52.504;13.498;2022-10-13T03:06:21;10.13;;;3.28;;
40807;SDS011;26523;52.504;13.498;2022-10-13T03:08:47;7.35;;;3.08;;
40807;SDS011;26523;52.504;13.498;2022-10-13T03:11:12;16.80;;;3.78;;
40807;SDS011;26523;52.504;13.498;2022-10-13T03:13:38;10.90;;;3.72;;
40807;SDS011;26523;52.504;13.498;2022-10-13T03:16:04;10.82;;;3.35;;
40807;SDS011;26523;52.504;13.498;2022-10-13T03:18:29;10.27;;;3.38;;
40807;SDS011;26523;52.504;13.498;2022-10-13T03:20:56;13.10;;;3.38;;
40807;SDS011;26523;52.504;13.498;2022-10-13T03:23:31;11.05;;;3.30;;
40807;SDS011;26523;52.504;13.498;2022-10-13T03:25:57;10.00;;;3.90;;
40807;SDS011;26523;52.504;13.498;2022-10-13T03:28:23;11.07;;;3.67;;
40807;SDS011;26523;52.504;13.498;2022-10-13T03:30:49;7.20;;;3.60;;
40807;SDS011;26523;52.504;13.498;2022-10-13T03:33:15;10.05;;;3.85;;
40807;SDS011;26523;52.504;13.498;2022-10-13T03:35:41;11.95;;;3.90;;
40807;SDS011;26523;52.504;13.498;2022-10-13T03:38:06;10.10;;;4.28;;
40807;SDS011;26523;52.504;13.498;2022-10-13T03:40:34;9.65;;;3.35;;
40807;SDS011;26523;52.504;13.498;2022-10-13T03:43:00;6.63;;;3.13;;
40807;SDS011;26523;52.504;13.498;2022-10-13T03:45:25;6.50;;;2.83;;
40807;SDS011;26523;52.504;13.498;2022-10-13T03:47:51;8.85;;;3.55;;
40807;SDS011;26523;52.504;13.498;2022-10-13T03:50:17;7.25;;;3.55;;
40807;SDS011;26523;52.504;13.498;2022-10-13T03:52:42;13.40;;;3.60;;
40807;SDS011;26523;52.504;13.498;2022-10-13T03:55:08;11.55;;;4.35;;
40807;SDS011;26523;52.504;13.498;2022-10-13T03:57:34;8.30;;;3.70;;
40807;SDS011;26523;52.504;13.498;2022-10-13T03:59:59;11.27;;;3.28;;
40807;SDS011;26523;52.504;13.498;2022-10-13T04:02:25;9.85;;;3.50;;
40807;SDS011;26523;52.504;13.498;2022-10-13T04:04:51;14.65;;;4.07;;
40807;SDS011;26523;52.504;13.498;2022-10-13T04:07:16;9.73;;;3.80;;
40807;SDS011;26523;52.504;13.498;2022-10-13T04:09:42;13.20;;;3.90;;
40807;SDS011;26523;52.504;13.498;2022-10-13T04:12:07;13.57;;;3.70;;
40807;SDS011;26523;52.504;13.498;2022-10-13T04:14:33;8.55;;;4.25;;
40807;SDS011;26523;52.504;13.498;2022-10-13T04:16:59;14.68;;;4.28;;
40807;SDS011;26523;52.504;13.498;2022-10-13T04:19:24;14.02;;;3.78;;
40807;SDS011;26523;52.504;13.498;2022-10-13T04:21:50;12.05;;;4.20;;
40807;SDS011;26523;52.504;13.498;2022-10-13T04:24:15;8.15;;;3.33;;
40807;SDS011;26523;52.504;13.498;2022-10-13T04:26:42;7.38;;;3.67;;
40807;SDS011;26523;52.504;13.498;2022-10-13T04:29:08;8.70;;;2.95;;
40807;SDS011;26523;52.504;13.498;2022-10-13T04:31:35;8.30;;;3.55;;
40807;SDS011;26523;52.504;13.498;2022-10-13T04:34:01;7.38;;;3.40;;
40807;SDS011;26523;52.504;13.498;2022-10-13T04:36:27;9.32;;;3.60;;
40807;SDS011;26523;52.504;13.498;2022-10-13T04:38:53;11.05;;;4.53;;
40807;SDS011;26523;52.504;13.498;2022-10-13T04:41:19;14.43;;;4.13;;
40807;SDS011;26523;52.504;13.498;2022-10-13T04:43:46;12.57;;;3.72;;
40807;SDS011;26523;52.504;13.498;2022-10-13T04:46:13;17.48;;;4.25;;
40807;SDS011;26523;52.504;13.498;2022-10-13T04:48:42;12.73;;;4.47;;
40807;SDS011;26523;52.504;13.498;2022-10-13T04:51:09;11.90;;;4.13;;
40807;SDS011;26523;52.504;13.498;2022-10-13T04:53:37;10.25;;;3.72;;
40807;SDS011;26523;52.504;13.498;2022-10-13T04:56:04;10.73;;;4.18;;
40807;SDS011;26523;52.504;13.498;2022-10-13T04:58:35;11.98;;;4.78;;
40807;SDS011;26523;52.504;13.498;2022-10-13T05:01:01;10.02;;;4.88;;
40807;SDS011;26523;52.504;13.498;2022-10-13T05:03:29;9.88;;;3.72;;
40807;SDS011;26523;52.504;13.498;2022-10-13T05:05:55;10.50;;;4.30;;
40807;SDS011;26523;52.504;13.498;2022-10-13T05:08:20;11.77;;;3.80;;
40807;SDS011;26523;52.504;13.498;2022-10-13T05:10:56;14.07;;;4.40;;
40807;SDS011;26523;52.504;13.498;2022-10-13T05:13:23;11.77;;;3.67;;
40807;SDS011;26523;52.504;13.498;2022-10-13T05:15:50;11.65;;;4.55;;
40807;SDS011;26523;52.504;13.498;2022-10-13T05:18:16;10.60;;;4.38;;
40807;SDS011;26523;52.504;13.498;2022-10-13T05:20:41;15.98;;;4.93;;
40807;SDS011;26523;52.504;13.498;2022-10-13T05:23:07;8.70;;;4.05;;
40807;SDS011;26523;52.504;13.498;2022-10-13T05:25:34;9.77;;;3.75;;
40807;SDS011;26523;52.504;13.498;2022-10-13T05:28:00;10.85;;;4.40;;
40807;SDS011;26523;52.504;13.498;2022-10-13T05:30:26;10.95;;;4.47;;
40807;SDS011;26523;52.504;13.498;2022-10-13T05:32:52;11.90;;;4.30;;
40807;SDS011;26523;52.504;13.498;2022-10-13T05:35:17;8.20;;;3.92;;
40807;SDS011;26523;52.504;13.498;2022-10-13T05:37:43;9.48;;;3.83;;
40807;SDS011;26523;52.504;13.498;2022-10-13T05:40:09;13.15;;;4.65;;
40807;SDS011;26523;52.504;13.498;2022-10-13T05:42:35;13.18;;;3.80;;
40807;SDS011;26523;52.504;13.498;2022-10-13T05:45:01;8.88;;;3.80;;
40807;SDS011;26523;52.504;13.498;2022-10-13T05:47:27;15.50;;;4.35;;
40807;SDS011;26523;52.504;13.498;2022-10-13T05:49:53;7.38;;;3.35;;
40807;SDS011;26523;52.504;13.498;2022-10-13T05:52:19;12.00;;;4.60;;
40807;SDS011;26523;52.504;13.498;2022-10-13T05:54:47;13.25;;;4.60;;
40807;SDS011;26523;52.504;13.498;2022-10-13T05:57:22;13.75;;;4.07;;
40807;SDS011;26523;52.504;13.498;2022-10-13T05:59:52;12.45;;;3.90;;
40807;SDS011;26523;52.504;13.498;2022-10-13T06:02:23;15.60;;;4.90;;
40807;SDS011;26523;52.504;13.498;2022-10-13T06:04:51;15.90;;;4.22;;
40807;SDS011;26523;52.504;13.498;2022-10-13T06:07:19;13.57;;;3.83;;
40807;SDS011;26523;52.504;13.498;2022-10-13T06:09:46;14.23;;;5.15;;
40807;SDS011;26523;52.504;13.498;2022-10-13T06:12:12;11.75;;;3.50;;
40807;SDS011;26523;52.504;13.498;2022-10-13T06:14:37;10.05;;;4.85;;
40807;SDS011;26523;52.504;13.498;2022-10-13T06:17:03;11.70;;;4.60;;
40807;SDS011;26523;52.504;13.498;2022-10-13T06:19:28;15.73;;;4.25;;
40807;SDS011;26523;52.504;13.498;2022-10-13T06:21:54;11.40;;;4.25;;
40807;SDS011;26523;52.504;13.498;2022-10-13T06:24:19;11.68;;;4.22;;
40807;SDS011;26523;52.504;13.498;2022-10-13T06:26:45;11.57;;;3.95;;
40807;SDS011;26523;52.504;13.498;2022-10-13T06:29:11;8.13;;;4.00;;
40807;SDS011;26523;52.504;13.498;2022-10-13T06:31:36;8.80;;;4.32;;
40807;SDS011;26523;52.504;13.498;2022-10-13T06:34:02;13.05;;;5.13;;
40807;SDS011;26523;52.504;13.498;2022-10-13T06:36:27;9.35;;;4.55;;
40807;SDS011;26523;52.504;13.498;2022-10-13T06:41:24;15.15;;;4.05;;
40807;SDS011;26523;52.504;13.498;2022-10-13T06:43:49;14.38;;;5.15;;
40807;SDS011;26523;52.504;13.498;2022-10-13T06:46:15;11.15;;;3.67;;
40807;SDS011;26523;52.504;13.498;2022-10-13T06:48:40;13.52;;;4.63;;
40807;SDS011;26523;52.504;13.498;2022-10-13T06:51:07;10.95;;;4.03;;
40807;SDS011;26523;52.504;13.498;2022-10-13T06:53:34;6.85;;;4.20;;
40807;SDS011;26523;52.504;13.498;2022-10-13T06:56:01;9.13;;;4.45;;
40807;SDS011;26523;52.504;13.498;2022-10-13T06:58:28;12.88;;;5.05;;
40807;SDS011;26523;52.504;13.498;2022-10-13T07:00:54;12.93;;;5.43;;
40807;SDS011;26523;52.504;13.498;2022-10-13T07:03:20;10.10;;;4.38;;
40807;SDS011;26523;52.504;13.498;2022-10-13T07:05:46;8.15;;;3.90;;
40807;SDS011;26523;52.504;13.498;2022-10-13T07:08:12;12.73;;;4.80;;
40807;SDS011;26523;52.504;13.498;2022-10-13T07:10:38;14.18;;;4.50;;
40807;SDS011;26523;52.504;13.498;2022-10-13T07:13:04;13.50;;;3.67;;
40807;SDS011;26523;52.504;13.498;2022-10-13T07:15:30;12.68;;;4.55;;
40807;SDS011;26523;52.504;13.498;2022-10-13T07:17:56;15.23;;;5.28;;
40807;SDS011;26523;52.504;13.498;2022-10-13T07:20:22;13.70;;;5.32;;
40807;SDS011;26523;52.504;13.498;2022-10-13T07:22:52;13.05;;;5.25;;
40807;SDS011;26523;52.504;13.498;2022-10-13T07:25:18;11.02;;;4.40;;
40807;SDS011;26523;52.504;13.498;2022-10-13T07:27:44;16.30;;;4.70;;
40807;SDS011;26523;52.504;13.498;2022-10-13T07:30:10;11.90;;;4.97;;
40807;SDS011;26523;52.504;13.498;2022-10-13T07:32:37;20.77;;;5.13;;
40807;SDS011;26523;52.504;13.498;2022-10-13T07:35:05;13.95;;;4.75;;
40807;SDS011;26523;52.504;13.498;2022-10-13T07:37:32;16.55;;;4.40;;
40807;SDS011;26523;52.504;13.498;2022-10-13T07:39:57;14.38;;;5.38;;
40807;SDS011;26523;52.504;13.498;2022-10-13T07:42:24;15.63;;;5.40;;
40807;SDS011;26523;52.504;13.498;2022-10-13T07:44:50;10.10;;;4.28;;
40807;SDS011;26523;52.504;13.498;2022-10-13T07:47:15;11.15;;;5.03;;
40807;SDS011;26523;52.504;13.498;2022-10-13T07:49:41;12.20;;;5.53;;
40807;SDS011;26523;52.504;13.498;2022-10-13T07:52:07;12.85;;;5.00;;
40807;SDS011;26523;52.504;13.498;2022-10-13T07:54:32;13.63;;;4.85;;
40807;SDS011;26523;52.504;13.498;2022-10-13T07:56:58;12.23;;;5.15;;
40807;SDS011;26523;52.504;13.498;2022-10-13T07:59:23;17.13;;;5.22;;
40807;SDS011;26523;52.504;13.498;2022-10-13T08:01:49;11.25;;;5.13;;
40807;SDS011;26523;52.504;13.498;2022-10-13T08:04:15;14.60;;;5.85;;
40807;SDS011;26523;52.504;13.498;2022-10-13T08:06:41;12.93;;;5.72;;
40807;SDS011;26523;52.504;13.498;2022-10-13T08:09:06;12.40;;;5.68;;
40807;SDS011;26523;52.504;13.498;2022-10-13T08:11:33;13.02;;;5.90;;
40807;SDS011;26523;52.504;13.498;2022-10-13T08:13:58;13.63;;;5.50;;
40807;SDS011;26523;52.504;13.498;2022-10-13T08:16:28;18.67;;;5.40;;
40807;SDS011;26523;52.504;13.498;2022-10-13T08:18:56;17.83;;;5.55;;
40807;SDS011;26523;52.504;13.498;2022-10-13T08:21:22;12.10;;;6.30;;
40807;SDS011;26523;52.504;13.498;2022-10-13T08:23:48;11.95;;;5.18;;
40807;SDS011;26523;52.504;13.498;2022-10-13T08:26:32;12.73;;;5.53;;
40807;SDS011;26523;52.504;13.498;2022-10-13T08:28:58;13.15;;;5.68;;
40807;SDS011;26523;52.504;13.498;2022-10-13T08:31:24;19.33;;;6.68;;
40807;SDS011;26523;52.504;13.498;2022-10-13T08:33:49;10.48;;;4.68;;
40807;SDS011;26523;52.504;13.498;2022-10-13T08:36:16;14.65;;;6.45;;
40807;SDS011;26523;52.504;13.498;2022-10-13T08:38:42;12.90;;;5.45;;
40807;SDS011;26523;52.504;13.498;2022-10-13T08:41:28;18.02;;;6.18;;
40807;SDS011;26523;52.504;13.498;2022-10-13T08:43:57;18.60;;;4.78;;
40807;SDS011;26523;52.504;13.498;2022-10-13T08:46:50;14.82;;;5.85;;
40807;SDS011;26523;52.504;13.498;2022-10-13T08:49:27;12.00;;;5.97;;
40807;SDS011;26523;52.504;13.498;2022-10-13T08:51:54;16.85;;;6.65;;
40807;SDS011;26523;52.504;13.498;2022-10-13T08:54:20;18.27;;;6.43;;
40807;SDS011;26523;52.504;13.498;2022-10-13T08:56:49;14.15;;;6.22;;
40807;SDS011;26523;52.504;13.498;2022-10-13T08:59:16;17.80;;;6.35;;
40807;SDS011;26523;52.504;13.498;2022-10-13T09:01:42;15.05;;;5.95;;
40807;SDS011;26523;52.504;13.498;2022-10-13T09:04:23;14.40;;;6.10;;
40807;SDS011;26523;52.504;13.498;2022-10-13T09:07:03;14.45;;;5.40;;
40807;SDS011;26523;52.504;13.498;2022-10-13T09:09:41;17.02;;;6.50;;
40807;SDS011;26523;52.504;13.498;2022-10-13T09:12:08;14.23;;;5.68;;
40807;SDS011;26523;52.504;13.498;2022-10-13T09:14:36;15.48;;;6.30;;
40807;SDS011;26523;52.504;13.498;2022-10-13T09:17:18;12.40;;;5.85;;
40807;SDS011;26523;52.504;13.498;2022-10-13T09:22:42;17.15;;;5.45;;
40807;SDS011;26523;52.504;13.498;2022-10-13T09:25:16;11.60;;;5.13;;
40807;SDS011;26523;52.504;13.498;2022-10-13T09:27:52;13.30;;;6.00;;
40807;SDS011;26523;52.504;13.498;2022-10-13T09:30:27;14.48;;;5.80;;
40807;SDS011;26523;52.504;13.498;2022-10-13T09:35:34;15.38;;;6.30;;
40807;SDS011;26523;52.504;13.498;2022-10-13T09:38:04;11.85;;;5.82;;
40807;SDS011;26523;52.504;13.498;2022-10-13T09:40:34;15.05;;;6.03;;
40807;SDS011;26523;52.504;13.498;2022-10-13T09:43:00;12.05;;;5.05;;
40807;SDS011;26523;52.504;13.498;2022-10-13T09:45:27;13.07;;;5.93;;
40807;SDS011;26523;52.504;13.498;2022-10-13T09:47:58;15.15;;;6.03;;
40807;SDS011;26523;52.504;13.498;2022-10-13T09:50:32;17.27;;;6.07;;
40807;SDS011;26523;52.504;13.498;2022-10-13T09:53:14;14.75;;;6.28;;
40807;SDS011;26523;52.504;13.498;2022-10-13T09:55:41;13.60;;;6.25;;
40807;SDS011;26523;52.504;13.498;2022-10-13T09:58:14;15.40;;;6.35;;
40807;SDS011;26523;52.504;13.498;2022-10-13T10:00:47;13.63;;;6.25;;
40807;SDS011;26523;52.504;13.498;2022-10-13T10:03:36;11.80;;;6.88;;
40807;SDS011;26523;52.504;13.498;2022-10-13T10:06:03;21.38;;;6.32;;
40807;SDS011;26523;52.504;13.498;2022-10-13T10:08:52;15.00;;;6.93;;
40807;SDS011;26523;52.504;13.498;2022-10-13T10:11:27;13.93;;;5.95;;
40807;SDS011;26523;52.504;13.498;2022-10-13T10:13:57;16.83;;;6.70;;
40807;SDS011;26523;52.504;13.498;2022-10-13T10:16:35;16.52;;;5.88;;
40807;SDS011;26523;52.504;13.498;2022-10-13T10:19:10;17.38;;;6.88;;
40807;SDS011;26523;52.504;13.498;2022-10-13T10:21:52;14.85;;;5.82;;
40807;SDS011;26523;52.504;13.498;2022-10-13T10:27:16;11.02;;;5.53;;
40807;SDS011;26523;52.504;13.498;2022-10-13T10:29:52;13.82;;;6.35;;
40807;SDS011;26523;52.504;13.498;2022-10-13T10:32:27;12.38;;;6.47;;
40807;SDS011;26523;52.504;13.498;2022-10-13T10:35:10;18.10;;;6.00;;
40807;SDS011;26523;52.504;13.498;2022-10-13T10:38:00;12.68;;;5.90;;
40807;SDS011;26523;52.504;13.498;2022-10-13T10:40:48;17.88;;;6.63;;
40807;SDS011;26523;52.504;13.498;2022-10-13T10:48:30;14.50;;;6.03;;
40807;SDS011;26523;52.504;13.498;2022-10-13T10:50:59;13.93;;;6.72;;
40807;SDS011;26523;52.504;13.498;2022-10-13T10:56:08;17.00;;;7.22;;
40807;SDS011;26523;52.504;13.498;2022-10-13T10:59:14;19.05;;;7.07;;
40807;SDS011;26523;52.504;13.498;2022-10-13T11:07:03;13.13;;;7.18;;
40807;SDS011;26523;52.504;13.498;2022-10-13T11:15:02;14.68;;;7.57;;
40807;SDS011;26523;52.504;13.498;2022-10-13T11:17:37;16.02;;;7.07;;
40807;SDS011;26523;52.504;13.498;2022-10-13T11:25:38;14.32;;;6.88;;
40807;SDS011;26523;52.504;13.498;2022-10-13T11:30:47;19.88;;;8.38;;
40807;SDS011;26523;52.504;13.498;2022-10-13T11:36:46;17.88;;;7.57;;
40807;SDS011;26523;52.504;13.498;2022-10-13T11:38:51;17.73;;;7.90;;
40807;SDS011;26523;52.504;13.498;2022-10-13T11:42:01;16.83;;;6.32;;
40807;SDS011;26523;52.504;13.498;2022-10-13T11:45:03;14.00;;;7.50;;
40807;SDS011;26523;52.504;13.498;2022-10-13T11:50:36;13.70;;;6.55;;
40807;SDS011;26523;52.504;13.498;2022-10-13T11:53:30;16.40;;;7.07;;
40807;SDS011;26523;52.504;13.498;2022-10-13T11:56:16;13.40;;;6.82;;
40807;SDS011;26523;52.504;13.498;2022-10-13T11:58:46;17.45;;;7.70;;
40807;SDS011;26523;52.504;13.498;2022-10-13T12:01:13;14.35;;;6.18;;
40807;SDS011;26523;52.504;13.498;2022-10-13T12:03:40;11.07;;;5.60;;
40807;SDS011;26523;52.504;13.498;2022-10-13T12:09:18;15.32;;;5.45;;
40807;SDS011;26523;52.504;13.498;2022-10-13T12:11:45;11.85;;;6.25;;
40807;SDS011;26523;52.504;13.498;2022-10-13T12:14:21;15.35;;;5.93;;
40807;SDS011;26523;52.504;13.498;2022-10-13T12:16:55;16.10;;;5.97;;
40807;SDS011;26523;52.504;13.498;2022-10-13T12:19:24;14.02;;;6.10;;
40807;SDS011;26523;52.504;13.498;2022-10-13T12:21:52;17.98;;;5.72;;
40807;SDS011;26523;52.504;13.498;2022-10-13T12:24:23;16.55;;;7.00;;
40807;SDS011;26523;52.504;13.498;2022-10-13T12:26:50;19.77;;;6.85;;
40807;SDS011;26523;52.504;13.498;2022-10-13T12:29:16;11.48;;;5.20;;
40807;SDS011;26523;52.504;13.498;2022-10-13T12:31:47;13.80;;;5.68;;
40807;SDS011;26523;52.504;13.498;2022-10-13T12:36:42;10.40;;;4.65;;
40807;SDS011;26523;52.504;13.498;2022-10-13T12:39:12;11.93;;;4.82;;
40807;SDS011;26523;52.504;13.498;2022-10-13T12:41:43;9.70;;;4.40;;
40807;SDS011;26523;52.504;13.498;2022-10-13T12:44:14;10.02;;;4.85;;
40807;SDS011;26523;52.504;13.498;2022-10-13T12:46:49;12.68;;;4.57;;
40807;SDS011;26523;52.504;13.498;2022-10-13T12:52:04;9.98;;;4.93;;
40807;SDS011;26523;52.504;13.498;2022-10-13T12:54:34;10.68;;;5.45;;
40807;SDS011;26523;52.504;13.498;2022-10-13T12:57:21;11.90;;;5.25;;
40807;SDS011;26523;52.504;13.498;2022-10-13T13:02:53;12.63;;;5.32;;
40807;SDS011;26523;52.504;13.498;2022-10-13T13:08:00;12.20;;;5.53;;
40807;SDS011;26523;52.504;13.498;2022-10-13T13:10:27;21.73;;;5.47;;
40807;SDS011;26523;52.504;13.498;2022-10-13T13:12:53;10.48;;;5.28;;
40807;SDS011;26523;52.504;13.498;2022-10-13T13:15:40;9.95;;;4.93;;
40807;SDS011;26523;52.504;13.498;2022-10-13T13:20:46;10.13;;;5.40;;
40807;SDS011;26523;52.504;13.498;2022-10-13T13:23:12;19.67;;;5.22;;
40807;SDS011;26523;52.504;13.498;2022-10-13T13:25:37;8.75;;;4.40;;
40807;SDS011;26523;52.504;13.498;2022-10-13T13:28:05;11.57;;;5.57;;
40807;SDS011;26523;52.504;13.498;2022-10-13T13:30:36;13.45;;;5.47;;
40807;SDS011;26523;52.504;13.498;2022-10-13T13:33:01;11.80;;;5.53;;
40807;SDS011;26523;52.504;13.498;2022-10-13T13:35:27;13.13;;;5.35;;
40807;SDS011;26523;52.504;13.498;2022-10-13T13:37:52;9.57;;;4.45;;
40807;SDS011;26523;52.504;13.498;2022-10-13T13:40:19;16.50;;;5.18;;
40807;SDS011;26523;52.504;13.498;2022-10-13T13:42:46;13.63;;;6.25;;
40807;SDS011;26523;52.504;13.498;2022-10-13T13:45:16;12.00;;;4.72;;
40807;SDS011;26523;52.504;13.498;2022-10-13T13:47:44;19.05;;;5.07;;
40807;SDS011;26523;52.504;13.498;2022-10-13T13:50:21;12.25;;;5.75;;
40807;SDS011;26523;52.504;13.498;2022-10-13T13:52:48;12.50;;;4.80;;
40807;SDS011;26523;52.504;13.498;2022-10-13T13:55:14;12.50;;;5.75;;
40807;SDS011;26523;52.504;13.498;2022-10-13T13:57:40;15.13;;;5.40;;
40807;SDS011;26523;52.504;13.498;2022-10-13T14:00:06;18.63;;;6.20;;
40807;SDS011;26523;52.504;13.498;2022-10-13T14:02:33;12.55;;;5.38;;
40807;SDS011;26523;52.504;13.498;2022-10-13T14:04:58;24.95;;;6.53;;
40807;SDS011;26523;52.504;13.498;2022-10-13T14:07:24;14.60;;;6.45;;
40807;SDS011;26523;52.504;13.498;2022-10-13T14:09:50;11.93;;;5.55;;
40807;SDS011;26523;52.504;13.498;2022-10-13T14:12:15;15.23;;;6.30;;
40807;SDS011;26523;52.504;13.498;2022-10-13T14:14:41;14.18;;;6.15;;
40807;SDS011;26523;52.504;13.498;2022-10-13T14:17:06;12.60;;;5.50;;
40807;SDS011;26523;52.504;13.498;2022-10-13T14:19:32;14.23;;;5.32;;
40807;SDS011;26523;52.504;13.498;2022-10-13T14:21:58;21.25;;;6.75;;
40807;SDS011;26523;52.504;13.498;2022-10-13T14:24:25;15.43;;;5.85;;
40807;SDS011;26523;52.504;13.498;2022-10-13T14:26:51;12.23;;;5.93;;
40807;SDS011;26523;52.504;13.498;2022-10-13T14:29:17;17.00;;;6.80;;
40807;SDS011;26523;52.504;13.498;2022-10-13T14:31:42;11.82;;;5.97;;
40807;SDS011;26523;52.504;13.498;2022-10-13T14:34:08;14.18;;;6.05;;
40807;SDS011;26523;52.504;13.498;2022-10-13T14:36:34;12.85;;;6.05;;
40807;SDS011;26523;52.504;13.498;2022-10-13T14:38:59;16.75;;;6.75;;
40807;SDS011;26523;52.504;13.498;2022-10-13T14:41:25;15.23;;;6.28;;
40807;SDS011;26523;52.504;13.498;2022-10-13T14:43:54;14.60;;;5.85;;
40807;SDS011;26523;52.504;13.498;2022-10-13T14:46:20;14.68;;;5.35;;
40807;SDS011;26523;52.504;13.498;2022-10-13T14:48:46;13.25;;;5.53;;
40807;SDS011;26523;52.504;13.498;2022-10-13T14:51:12;14.35;;;5.70;;
40807;SDS011;26523;52.504;13.498;2022-10-13T14:53:39;10.93;;;5.18;;
40807;SDS011;26523;52.504;13.498;2022-10-13T14:56:22;10.07;;;5.57;;
40807;SDS011;26523;52.504;13.498;2022-10-13T14:58:50;14.68;;;5.00;;
40807;SDS011;26523;52.504;13.498;2022-10-13T15:01:17;17.75;;;6.85;;
40807;SDS011;26523;52.504;13.498;2022-10-13T15:03:43;14.30;;;6.00;;
40807;SDS011;26523;52.504;13.498;2022-10-13T15:06:13;16.95;;;6.65;;
40807;SDS011;26523;52.504;13.498;2022-10-13T15:08:43;12.57;;;5.40;;
40807;SDS011;26523;52.504;13.498;2022-10-13T15:11:09;9.57;;;5.15;;
40807;SDS011;26523;52.504;13.498;2022-10-13T15:13:36;14.27;;;5.97;;
40807;SDS011;26523;52.504;13.498;2022-10-13T15:16:02;19.35;;;6.45;;
40807;SDS011;26523;52.504;13.498;2022-10-13T15:18:31;10.77;;;5.70;;
40807;SDS011;26523;52.504;13.498;2022-10-13T15:20:58;16.23;;;6.13;;
40807;SDS011;26523;52.504;13.498;2022-10-13T15:23:24;11.52;;;5.47;;
40807;SDS011;26523;52.504;13.498;2022-10-13T15:28:24;14.88;;;5.43;;
40807;SDS011;26523;52.504;13.498;2022-10-13T15:30:51;11.75;;;5.70;;
40807;SDS011;26523;52.504;13.498;2022-10-13T15:33:17;13.55;;;5.60;;
40807;SDS011;26523;52.504;13.498;2022-10-13T15:35:46;16.80;;;6.35;;
40807;SDS011;26523;52.504;13.498;2022-10-13T15:38:13;17.20;;;5.40;;
40807;SDS011;26523;52.504;13.498;2022-10-13T15:40:39;19.77;;;6.28;;
40807;SDS011;26523;52.504;13.498;2022-10-13T15:43:05;13.30;;;5.43;;
40807;SDS011;26523;52.504;13.498;2022-10-13T15:45:31;13.07;;;6.05;;
40807;SDS011;26523;52.504;13.498;2022-10-13T15:47:56;16.75;;;6.43;;
40807;SDS011;26523;52.504;13.498;2022-10-13T15:50:25;19.83;;;6.63;;
40807;SDS011;26523;52.504;13.498;2022-10-13T15:52:51;12.30;;;6.00;;
40807;SDS011;26523;52.504;13.498;2022-10-13T15:55:17;14.32;;;7.28;;
40807;SDS011;26523;52.504;13.498;2022-10-13T15:57:43;13.63;;;6.07;;
40807;SDS011;26523;52.504;13.498;2022-10-13T16:00:10;16.10;;;6.40;;